sensor_id;sensor_type;location;lat;lon;timestamp;P1;durP1;ratioP1;P2;durP2;ratioP2
20824;SDS011;10573;50.936;6.978;2023-06-22T00:02:15;5.28;;;4.15;;
20824;SDS011;10573;50.936;6.978;2023-06-22T00:04:40;6.07;;;4.10;;
20824;SDS011;10573;50.936;6.978;2023-06-22T00:07:05;6.17;;;4.40;;
20824;SDS011;10573;50.936;6.978;2023-06-22T00:09:31;5.00;;;3.93;;
20824;SDS011;10573;50.936;6.978;2023-06-22T00:11:57;5.32;;;3.85;;
20824;SDS011;10573;50.936;6.978;2023-06-22T00:14:22;6.37;;;4.20;;
20824;SDS011;10573;50.936;6.978;2023-06-22T00:16:48;5.80;;;4.10;;
20824;SDS011;10573;50.936;6.978;2023-06-22T00:19:14;6.78;;;4.10;;
20824;SDS011;10573;50.936;6.978;2023-06-22T00:21:40;4.30;;;3.90;;
20824;SDS011;10573;50.936;6.978;2023-06-22T00:24:06;6.57;;;4.30;;
20824;SDS011;10573;50.936;6.978;2023-06-22T00:26:31;4.00;;;3.70;;
20824;SDS011;10573;50.936;6.978;2023-06-22T00:28:57;4.38;;;3.97;;
20824;SDS011;10573;50.936;6.978;2023-06-22T00:31:22;6.13;;;4.40;;
20824;SDS011;10573;50.936;6.978;2023-06-22T00:33:48;5.77;;;4.07;;
20824;SDS011;10573;50.936;6.978;2023-06-22T00:36:15;5.37;;;4.60;;
20824;SDS011;10573;50.936;6.978;2023-06-22T00:38:43;7.10;;;4.50;;
20824;SDS011;10573;50.936;6.978;2023-06-22T00:41:08;6.00;;;4.30;;
20824;SDS011;10573;50.936;6.978;2023-06-22T00:43:34;5.57;;;3.92;;
20824;SDS011;10573;50.936;6.978;2023-06-22T00:46:00;4.63;;;4.23;;
20824;SDS011;10573;50.936;6.978;2023-06-22T00:48:26;7.22;;;4.57;;
20824;SDS011;10573;50.936;6.978;2023-06-22T00:50:52;4.90;;;4.23;;
20824;SDS011;10573;50.936;6.978;2023-06-22T00:53:18;5.00;;;4.07;;
20824;SDS011;10573;50.936;6.978;2023-06-22T00:55:45;6.85;;;4.15;;
20824;SDS011;10573;50.936;6.978;2023-06-22T00:58:17;5.97;;;4.30;;
20824;SDS011;10573;50.936;6.978;2023-06-22T01:00:47;6.60;;;3.83;;
20824;SDS011;10573;50.936;6.978;2023-06-22T01:03:13;4.70;;;3.97;;
20824;SDS011;10573;50.936;6.978;2023-06-22T01:05:39;4.43;;;3.75;;
20824;SDS011;10573;50.936;6.978;2023-06-22T01:08:17;5.68;;;4.13;;
20824;SDS011;10573;50.936;6.978;2023-06-22T01:13:42;5.30;;;4.18;;
20824;SDS011;10573;50.936;6.978;2023-06-22T01:16:29;6.68;;;4.22;;
20824;SDS011;10573;50.936;6.978;2023-06-22T01:19:09;4.60;;;3.90;;
20824;SDS011;10573;50.936;6.978;2023-06-22T01:21:40;5.68;;;4.20;;
20824;SDS011;10573;50.936;6.978;2023-06-22T01:24:22;6.75;;;4.03;;
20824;SDS011;10573;50.936;6.978;2023-06-22T01:29:18;7.83;;;4.20;;
20824;SDS011;10573;50.936;6.978;2023-06-22T01:31:46;4.50;;;3.75;;
20824;SDS011;10573;50.936;6.978;2023-06-22T01:34:13;5.47;;;4.25;;
20824;SDS011;10573;50.936;6.978;2023-06-22T01:36:40;5.28;;;3.90;;
20824;SDS011;10573;50.936;6.978;2023-06-22T01:39:07;5.70;;;3.85;;
20824;SDS011;10573;50.936;6.978;2023-06-22T01:41:36;5.40;;;4.13;;
20824;SDS011;10573;50.936;6.978;2023-06-22T01:44:05;4.90;;;4.20;;
20824;SDS011;10573;50.936;6.978;2023-06-22T01:46:33;5.65;;;4.10;;
20824;SDS011;10573;50.936;6.978;2023-06-22T01:49:01;9.30;;;4.40;;
20824;SDS011;10573;50.936;6.978;2023-06-22T01:51:27;6.20;;;4.10;;
20824;SDS011;10573;50.936;6.978;2023-06-22T01:53:53;4.95;;;4.40;;
20824;SDS011;10573;50.936;6.978;2023-06-22T01:56:18;7.77;;;4.77;;
20824;SDS011;10573;50.936;6.978;2023-06-22T01:58:59;6.45;;;4.00;;
20824;SDS011;10573;50.936;6.978;2023-06-22T02:01:58;4.53;;;4.13;;
20824;SDS011;10573;50.936;6.978;2023-06-22T02:04:29;6.50;;;4.18;;
20824;SDS011;10573;50.936;6.978;2023-06-22T02:07:21;4.83;;;3.77;;
20824;SDS011;10573;50.936;6.978;2023-06-22T02:09:49;6.13;;;4.80;;
20824;SDS011;10573;50.936;6.978;2023-06-22T02:12:18;9.00;;;4.22;;
20824;SDS011;10573;50.936;6.978;2023-06-22T02:14:48;4.28;;;3.80;;
20824;SDS011;10573;50.936;6.978;2023-06-22T02:17:13;6.10;;;3.97;;
20824;SDS011;10573;50.936;6.978;2023-06-22T02:19:42;6.50;;;4.15;;
20824;SDS011;10573;50.936;6.978;2023-06-22T02:22:07;6.57;;;4.03;;
20824;SDS011;10573;50.936;6.978;2023-06-22T02:24:33;7.53;;;4.30;;
20824;SDS011;10573;50.936;6.978;2023-06-22T02:26:59;4.70;;;3.83;;
20824;SDS011;10573;50.936;6.978;2023-06-22T02:29:25;6.25;;;4.22;;
20824;SDS011;10573;50.936;6.978;2023-06-22T02:31:52;4.90;;;4.10;;
20824;SDS011;10573;50.936;6.978;2023-06-22T02:34:18;5.47;;;4.10;;
20824;SDS011;10573;50.936;6.978;2023-06-22T02:36:47;4.55;;;4.00;;
20824;SDS011;10573;50.936;6.978;2023-06-22T02:39:20;5.18;;;3.92;;
20824;SDS011;10573;50.936;6.978;2023-06-22T02:41:47;5.73;;;3.80;;
20824;SDS011;10573;50.936;6.978;2023-06-22T02:44:20;4.80;;;3.73;;
20824;SDS011;10573;50.936;6.978;2023-06-22T02:46:46;4.43;;;3.90;;
20824;SDS011;10573;50.936;6.978;2023-06-22T02:49:12;5.32;;;4.15;;
20824;SDS011;10573;50.936;6.978;2023-06-22T02:51:38;4.93;;;4.10;;
20824;SDS011;10573;50.936;6.978;2023-06-22T02:54:09;5.90;;;3.95;;
20824;SDS011;10573;50.936;6.978;2023-06-22T02:56:35;6.40;;;4.20;;
20824;SDS011;10573;50.936;6.978;2023-06-22T02:59:01;4.65;;;3.50;;
20824;SDS011;10573;50.936;6.978;2023-06-22T03:01:27;5.22;;;3.80;;
20824;SDS011;10573;50.936;6.978;2023-06-22T03:03:55;5.00;;;3.40;;
20824;SDS011;10573;50.936;6.978;2023-06-22T03:06:23;5.30;;;3.95;;
20824;SDS011;10573;50.936;6.978;2023-06-22T03:08:53;5.40;;;3.78;;
20824;SDS011;10573;50.936;6.978;2023-06-22T03:11:22;6.10;;;3.53;;
20824;SDS011;10573;50.936;6.978;2023-06-22T03:13:48;5.07;;;3.70;;
20824;SDS011;10573;50.936;6.978;2023-06-22T03:16:13;7.73;;;3.60;;
20824;SDS011;10573;50.936;6.978;2023-06-22T03:18:39;6.70;;;3.93;;
20824;SDS011;10573;50.936;6.978;2023-06-22T03:21:04;5.17;;;3.80;;
20824;SDS011;10573;50.936;6.978;2023-06-22T03:23:30;5.45;;;3.75;;
20824;SDS011;10573;50.936;6.978;2023-06-22T03:25:55;7.73;;;4.10;;
20824;SDS011;10573;50.936;6.978;2023-06-22T03:28:21;7.40;;;4.80;;
20824;SDS011;10573;50.936;6.978;2023-06-22T03:30:47;5.30;;;4.33;;
20824;SDS011;10573;50.936;6.978;2023-06-22T03:33:12;6.28;;;4.70;;
20824;SDS011;10573;50.936;6.978;2023-06-22T03:35:38;5.13;;;4.40;;
20824;SDS011;10573;50.936;6.978;2023-06-22T03:38:03;6.73;;;4.67;;
20824;SDS011;10573;50.936;6.978;2023-06-22T03:40:29;6.65;;;4.72;;
20824;SDS011;10573;50.936;6.978;2023-06-22T03:42:55;7.27;;;4.80;;
20824;SDS011;10573;50.936;6.978;2023-06-22T03:45:21;6.50;;;4.75;;
20824;SDS011;10573;50.936;6.978;2023-06-22T03:47:46;6.07;;;4.20;;
20824;SDS011;10573;50.936;6.978;2023-06-22T03:50:11;6.22;;;4.75;;
20824;SDS011;10573;50.936;6.978;2023-06-22T03:52:37;6.10;;;4.67;;
20824;SDS011;10573;50.936;6.978;2023-06-22T03:55:02;5.60;;;4.00;;
20824;SDS011;10573;50.936;6.978;2023-06-22T03:57:28;8.30;;;5.15;;
20824;SDS011;10573;50.936;6.978;2023-06-22T03:59:56;7.60;;;5.23;;
20824;SDS011;10573;50.936;6.978;2023-06-22T04:02:22;7.10;;;5.22;;
20824;SDS011;10573;50.936;6.978;2023-06-22T04:04:47;6.57;;;4.87;;
20824;SDS011;10573;50.936;6.978;2023-06-22T04:07:12;7.80;;;5.50;;
20824;SDS011;10573;50.936;6.978;2023-06-22T04:09:38;6.75;;;5.03;;
20824;SDS011;10573;50.936;6.978;2023-06-22T04:12:04;6.07;;;5.40;;
20824;SDS011;10573;50.936;6.978;2023-06-22T04:14:29;6.78;;;5.10;;
20824;SDS011;10573;50.936;6.978;2023-06-22T04:16:55;8.03;;;5.90;;
20824;SDS011;10573;50.936;6.978;2023-06-22T04:19:20;8.57;;;7.57;;
20824;SDS011;10573;50.936;6.978;2023-06-22T04:21:46;20.98;;;12.93;;
20824;SDS011;10573;50.936;6.978;2023-06-22T04:24:13;17.23;;;11.38;;
20824;SDS011;10573;50.936;6.978;2023-06-22T04:26:39;11.40;;;9.23;;
20824;SDS011;10573;50.936;6.978;2023-06-22T04:29:06;9.18;;;6.60;;
20824;SDS011;10573;50.936;6.978;2023-06-22T04:31:33;8.10;;;5.80;;
20824;SDS011;10573;50.936;6.978;2023-06-22T04:34:04;8.80;;;5.28;;
20824;SDS011;10573;50.936;6.978;2023-06-22T04:36:40;7.18;;;5.80;;
20824;SDS011;10573;50.936;6.978;2023-06-22T04:39:09;7.07;;;5.87;;
20824;SDS011;10573;50.936;6.978;2023-06-22T04:41:36;9.40;;;6.20;;
20824;SDS011;10573;50.936;6.978;2023-06-22T04:44:08;8.48;;;6.30;;
20824;SDS011;10573;50.936;6.978;2023-06-22T04:46:35;11.57;;;6.05;;
20824;SDS011;10573;50.936;6.978;2023-06-22T04:49:09;9.90;;;6.30;;
20824;SDS011;10573;50.936;6.978;2023-06-22T04:51:41;8.17;;;5.93;;
20824;SDS011;10573;50.936;6.978;2023-06-22T04:54:07;9.18;;;6.45;;
20824;SDS011;10573;50.936;6.978;2023-06-22T04:56:34;10.10;;;6.63;;
20824;SDS011;10573;50.936;6.978;2023-06-22T04:59:00;9.05;;;6.45;;
20824;SDS011;10573;50.936;6.978;2023-06-22T05:01:26;10.25;;;6.75;;
20824;SDS011;10573;50.936;6.978;2023-06-22T05:03:51;9.57;;;7.03;;
20824;SDS011;10573;50.936;6.978;2023-06-22T05:06:26;9.93;;;7.25;;
20824;SDS011;10573;50.936;6.978;2023-06-22T05:08:55;8.57;;;6.93;;
20824;SDS011;10573;50.936;6.978;2023-06-22T05:11:25;7.50;;;6.72;;
20824;SDS011;10573;50.936;6.978;2023-06-22T05:13:54;7.60;;;6.80;;
20824;SDS011;10573;50.936;6.978;2023-06-22T05:16:20;8.20;;;7.30;;
20824;SDS011;10573;50.936;6.978;2023-06-22T05:18:50;11.05;;;7.63;;
20824;SDS011;10573;50.936;6.978;2023-06-22T05:21:17;7.68;;;6.85;;
20824;SDS011;10573;50.936;6.978;2023-06-22T05:23:42;8.90;;;7.03;;
20824;SDS011;10573;50.936;6.978;2023-06-22T05:26:08;8.07;;;7.27;;
20824;SDS011;10573;50.936;6.978;2023-06-22T05:28:35;8.48;;;7.38;;
20824;SDS011;10573;50.936;6.978;2023-06-22T05:31:00;8.57;;;7.23;;
20824;SDS011;10573;50.936;6.978;2023-06-22T05:33:26;11.38;;;7.55;;
20824;SDS011;10573;50.936;6.978;2023-06-22T05:35:51;7.50;;;6.80;;
20824;SDS011;10573;50.936;6.978;2023-06-22T05:38:17;10.10;;;6.97;;
20824;SDS011;10573;50.936;6.978;2023-06-22T05:40:42;8.57;;;7.23;;
20824;SDS011;10573;50.936;6.978;2023-06-22T05:43:07;9.90;;;7.45;;
20824;SDS011;10573;50.936;6.978;2023-06-22T05:45:33;15.73;;;7.40;;
20824;SDS011;10573;50.936;6.978;2023-06-22T05:47:58;11.03;;;7.60;;
20824;SDS011;10573;50.936;6.978;2023-06-22T05:50:24;9.40;;;7.10;;
20824;SDS011;10573;50.936;6.978;2023-06-22T05:52:49;8.87;;;7.17;;
20824;SDS011;10573;50.936;6.978;2023-06-22T05:55:14;8.68;;;7.05;;
20824;SDS011;10573;50.936;6.978;2023-06-22T05:57:40;10.80;;;7.30;;
20824;SDS011;10573;50.936;6.978;2023-06-22T06:00:06;8.33;;;7.47;;
20824;SDS011;10573;50.936;6.978;2023-06-22T06:02:35;9.85;;;7.63;;
20824;SDS011;10573;50.936;6.978;2023-06-22T06:05:01;11.83;;;7.30;;
20824;SDS011;10573;50.936;6.978;2023-06-22T06:07:28;10.43;;;7.05;;
20824;SDS011;10573;50.936;6.978;2023-06-22T06:09:54;10.57;;;7.50;;
20824;SDS011;10573;50.936;6.978;2023-06-22T06:12:20;9.18;;;7.18;;
20824;SDS011;10573;50.936;6.978;2023-06-22T06:14:45;9.38;;;6.82;;
20824;SDS011;10573;50.936;6.978;2023-06-22T06:17:12;10.20;;;7.38;;
20824;SDS011;10573;50.936;6.978;2023-06-22T06:19:37;8.47;;;7.40;;
20824;SDS011;10573;50.936;6.978;2023-06-22T06:22:03;7.93;;;7.03;;
20824;SDS011;10573;50.936;6.978;2023-06-22T06:24:28;9.07;;;7.10;;
20824;SDS011;10573;50.936;6.978;2023-06-22T06:26:54;8.30;;;7.23;;
20824;SDS011;10573;50.936;6.978;2023-06-22T06:29:20;9.35;;;7.15;;
20824;SDS011;10573;50.936;6.978;2023-06-22T06:31:45;11.40;;;7.70;;
20824;SDS011;10573;50.936;6.978;2023-06-22T06:34:11;12.48;;;7.72;;
20824;SDS011;10573;50.936;6.978;2023-06-22T06:36:36;12.85;;;7.22;;
20824;SDS011;10573;50.936;6.978;2023-06-22T06:39:02;11.23;;;7.47;;
20824;SDS011;10573;50.936;6.978;2023-06-22T06:41:28;10.02;;;6.97;;
20824;SDS011;10573;50.936;6.978;2023-06-22T06:43:54;10.90;;;7.55;;
20824;SDS011;10573;50.936;6.978;2023-06-22T06:46:19;10.27;;;7.13;;
20824;SDS011;10573;50.936;6.978;2023-06-22T06:48:44;8.30;;;6.73;;
20824;SDS011;10573;50.936;6.978;2023-06-22T06:51:10;13.03;;;7.50;;
20824;SDS011;10573;50.936;6.978;2023-06-22T06:53:36;9.57;;;7.03;;
20824;SDS011;10573;50.936;6.978;2023-06-22T06:56:02;13.95;;;7.55;;
20824;SDS011;10573;50.936;6.978;2023-06-22T06:58:28;12.25;;;7.70;;
20824;SDS011;10573;50.936;6.978;2023-06-22T07:00:54;11.70;;;7.97;;
20824;SDS011;10573;50.936;6.978;2023-06-22T07:03:19;12.93;;;7.00;;
20824;SDS011;10573;50.936;6.978;2023-06-22T07:05:44;11.37;;;7.17;;
20824;SDS011;10573;50.936;6.978;2023-06-22T07:08:10;7.97;;;6.63;;
20824;SDS011;10573;50.936;6.978;2023-06-22T07:10:35;7.25;;;6.55;;
20824;SDS011;10573;50.936;6.978;2023-06-22T07:13:01;9.65;;;6.30;;
20824;SDS011;10573;50.936;6.978;2023-06-22T07:15:27;10.60;;;7.40;;
20824;SDS011;10573;50.936;6.978;2023-06-22T07:17:52;10.60;;;6.73;;
20824;SDS011;10573;50.936;6.978;2023-06-22T07:20:18;8.27;;;6.63;;
20824;SDS011;10573;50.936;6.978;2023-06-22T07:22:44;10.98;;;7.07;;
20824;SDS011;10573;50.936;6.978;2023-06-22T07:25:10;13.60;;;7.68;;
20824;SDS011;10573;50.936;6.978;2023-06-22T07:27:39;9.32;;;7.10;;
20824;SDS011;10573;50.936;6.978;2023-06-22T07:30:10;13.07;;;7.50;;
20824;SDS011;10573;50.936;6.978;2023-06-22T07:32:36;8.63;;;7.03;;
20824;SDS011;10573;50.936;6.978;2023-06-22T07:35:02;11.98;;;6.60;;
20824;SDS011;10573;50.936;6.978;2023-06-22T07:37:28;8.70;;;7.23;;
20824;SDS011;10573;50.936;6.978;2023-06-22T07:39:54;8.52;;;6.68;;
20824;SDS011;10573;50.936;6.978;2023-06-22T07:42:24;11.88;;;6.47;;
20824;SDS011;10573;50.936;6.978;2023-06-22T07:44:53;9.18;;;6.15;;
20824;SDS011;10573;50.936;6.978;2023-06-22T07:47:19;8.18;;;5.72;;
20824;SDS011;10573;50.936;6.978;2023-06-22T07:49:46;11.18;;;6.40;;
20824;SDS011;10573;50.936;6.978;2023-06-22T07:52:11;14.63;;;8.60;;
20824;SDS011;10573;50.936;6.978;2023-06-22T07:54:37;11.50;;;8.10;;
20824;SDS011;10573;50.936;6.978;2023-06-22T07:57:03;7.47;;;6.53;;
20824;SDS011;10573;50.936;6.978;2023-06-22T07:59:29;8.88;;;6.40;;
20824;SDS011;10573;50.936;6.978;2023-06-22T08:01:54;10.23;;;6.57;;
20824;SDS011;10573;50.936;6.978;2023-06-22T08:04:20;8.13;;;7.15;;
20824;SDS011;10573;50.936;6.978;2023-06-22T08:06:46;11.60;;;7.67;;
20824;SDS011;10573;50.936;6.978;2023-06-22T08:09:11;9.30;;;7.10;;
20824;SDS011;10573;50.936;6.978;2023-06-22T08:11:37;10.05;;;7.40;;
20824;SDS011;10573;50.936;6.978;2023-06-22T08:14:02;9.13;;;6.90;;
20824;SDS011;10573;50.936;6.978;2023-06-22T08:16:28;8.97;;;6.03;;
20824;SDS011;10573;50.936;6.978;2023-06-22T08:18:54;7.85;;;6.85;;
20824;SDS011;10573;50.936;6.978;2023-06-22T08:21:19;10.68;;;6.95;;
20824;SDS011;10573;50.936;6.978;2023-06-22T08:23:45;8.10;;;7.00;;
20824;SDS011;10573;50.936;6.978;2023-06-22T08:26:10;7.67;;;6.87;;
20824;SDS011;10573;50.936;6.978;2023-06-22T08:28:36;8.00;;;6.53;;
20824;SDS011;10573;50.936;6.978;2023-06-22T08:31:01;9.75;;;6.00;;
20824;SDS011;10573;50.936;6.978;2023-06-22T08:33:28;8.88;;;6.18;;
20824;SDS011;10573;50.936;6.978;2023-06-22T08:35:55;9.20;;;6.53;;
20824;SDS011;10573;50.936;6.978;2023-06-22T08:38:21;6.57;;;5.80;;
20824;SDS011;10573;50.936;6.978;2023-06-22T08:40:47;7.28;;;5.50;;
20824;SDS011;10573;50.936;6.978;2023-06-22T08:43:12;6.97;;;5.97;;
20824;SDS011;10573;50.936;6.978;2023-06-22T08:45:37;7.20;;;6.00;;
20824;SDS011;10573;50.936;6.978;2023-06-22T08:48:03;6.37;;;5.67;;
20824;SDS011;10573;50.936;6.978;2023-06-22T08:50:28;7.17;;;5.97;;
20824;SDS011;10573;50.936;6.978;2023-06-22T08:52:54;11.47;;;6.47;;
20824;SDS011;10573;50.936;6.978;2023-06-22T08:55:19;8.10;;;6.20;;
20824;SDS011;10573;50.936;6.978;2023-06-22T08:57:45;8.87;;;6.03;;
20824;SDS011;10573;50.936;6.978;2023-06-22T09:00:10;6.67;;;5.93;;
20824;SDS011;10573;50.936;6.978;2023-06-22T09:02:43;9.07;;;6.05;;
20824;SDS011;10573;50.936;6.978;2023-06-22T09:05:09;9.50;;;5.88;;
20824;SDS011;10573;50.936;6.978;2023-06-22T09:07:35;7.00;;;6.20;;
20824;SDS011;10573;50.936;6.978;2023-06-22T09:10:00;6.60;;;5.70;;
20824;SDS011;10573;50.936;6.978;2023-06-22T09:12:26;7.50;;;5.80;;
20824;SDS011;10573;50.936;6.978;2023-06-22T09:14:52;6.18;;;5.57;;
20824;SDS011;10573;50.936;6.978;2023-06-22T09:17:18;8.85;;;5.93;;
20824;SDS011;10573;50.936;6.978;2023-06-22T09:19:44;6.70;;;5.70;;
20824;SDS011;10573;50.936;6.978;2023-06-22T09:22:09;6.47;;;5.87;;
20824;SDS011;10573;50.936;6.978;2023-06-22T09:24:35;6.53;;;5.80;;
20824;SDS011;10573;50.936;6.978;2023-06-22T09:27:00;7.18;;;5.47;;
20824;SDS011;10573;50.936;6.978;2023-06-22T09:29:26;11.32;;;6.05;;
20824;SDS011;10573;50.936;6.978;2023-06-22T09:31:51;6.85;;;5.68;;
20824;SDS011;10573;50.936;6.978;2023-06-22T09:34:18;7.33;;;5.63;;
20824;SDS011;10573;50.936;6.978;2023-06-22T09:36:45;6.78;;;5.63;;
20824;SDS011;10573;50.936;6.978;2023-06-22T09:39:14;6.88;;;5.57;;
20824;SDS011;10573;50.936;6.978;2023-06-22T09:41:39;7.07;;;5.77;;
20824;SDS011;10573;50.936;6.978;2023-06-22T09:44:05;6.73;;;5.50;;
20824;SDS011;10573;50.936;6.978;2023-06-22T09:46:30;10.03;;;5.80;;
20824;SDS011;10573;50.936;6.978;2023-06-22T09:48:55;9.20;;;5.90;;
20824;SDS011;10573;50.936;6.978;2023-06-22T09:51:22;6.10;;;5.50;;
20824;SDS011;10573;50.936;6.978;2023-06-22T09:53:49;6.07;;;5.47;;
20824;SDS011;10573;50.936;6.978;2023-06-22T09:56:15;7.32;;;5.95;;
20824;SDS011;10573;50.936;6.978;2023-06-22T09:58:44;8.07;;;5.78;;
20824;SDS011;10573;50.936;6.978;2023-06-22T10:01:11;6.30;;;5.70;;
20824;SDS011;10573;50.936;6.978;2023-06-22T10:03:37;6.60;;;5.90;;
20824;SDS011;10573;50.936;6.978;2023-06-22T10:06:02;8.57;;;6.10;;
20824;SDS011;10573;50.936;6.978;2023-06-22T10:08:28;8.07;;;7.28;;
20824;SDS011;10573;50.936;6.978;2023-06-22T10:10:54;15.53;;;12.37;;
20824;SDS011;10573;50.936;6.978;2023-06-22T10:13:19;9.83;;;6.37;;
20824;SDS011;10573;50.936;6.978;2023-06-22T10:15:45;7.97;;;6.22;;
20824;SDS011;10573;50.936;6.978;2023-06-22T10:18:15;6.80;;;6.07;;
20824;SDS011;10573;50.936;6.978;2023-06-22T10:20:41;9.10;;;6.63;;
20824;SDS011;10573;50.936;6.978;2023-06-22T10:23:07;6.65;;;5.82;;
20824;SDS011;10573;50.936;6.978;2023-06-22T10:25:32;8.13;;;6.40;;
20824;SDS011;10573;50.936;6.978;2023-06-22T10:27:58;11.80;;;6.68;;
20824;SDS011;10573;50.936;6.978;2023-06-22T10:30:23;16.93;;;6.20;;
20824;SDS011;10573;50.936;6.978;2023-06-22T10:32:48;8.90;;;6.90;;
20824;SDS011;10573;50.936;6.978;2023-06-22T10:35:14;11.03;;;6.77;;
20824;SDS011;10573;50.936;6.978;2023-06-22T10:37:44;12.07;;;6.95;;
20824;SDS011;10573;50.936;6.978;2023-06-22T10:40:11;13.82;;;7.97;;
20824;SDS011;10573;50.936;6.978;2023-06-22T10:42:38;13.00;;;7.35;;
20824;SDS011;10573;50.936;6.978;2023-06-22T10:45:04;13.55;;;8.20;;
20824;SDS011;10573;50.936;6.978;2023-06-22T10:47:29;13.63;;;8.35;;
20824;SDS011;10573;50.936;6.978;2023-06-22T10:49:55;12.93;;;8.20;;
20824;SDS011;10573;50.936;6.978;2023-06-22T10:52:20;11.10;;;8.67;;
20824;SDS011;10573;50.936;6.978;2023-06-22T10:54:45;16.08;;;7.78;;
20824;SDS011;10573;50.936;6.978;2023-06-22T10:57:11;13.05;;;8.30;;
20824;SDS011;10573;50.936;6.978;2023-06-22T10:59:36;13.50;;;7.97;;
20824;SDS011;10573;50.936;6.978;2023-06-22T11:02:02;13.73;;;8.30;;
20824;SDS011;10573;50.936;6.978;2023-06-22T11:04:27;13.70;;;9.57;;
20824;SDS011;10573;50.936;6.978;2023-06-22T11:06:53;14.07;;;9.10;;
20824;SDS011;10573;50.936;6.978;2023-06-22T11:09:18;14.95;;;8.93;;
20824;SDS011;10573;50.936;6.978;2023-06-22T11:11:50;14.02;;;9.00;;
20824;SDS011;10573;50.936;6.978;2023-06-22T11:14:19;13.10;;;9.50;;
20824;SDS011;10573;50.936;6.978;2023-06-22T11:16:45;14.88;;;9.52;;
20824;SDS011;10573;50.936;6.978;2023-06-22T11:19:11;17.25;;;10.25;;
20824;SDS011;10573;50.936;6.978;2023-06-22T11:21:37;16.02;;;10.00;;
20824;SDS011;10573;50.936;6.978;2023-06-22T11:24:06;12.80;;;9.45;;
20824;SDS011;10573;50.936;6.978;2023-06-22T11:26:35;16.05;;;9.00;;
20824;SDS011;10573;50.936;6.978;2023-06-22T11:29:01;11.75;;;8.32;;
20824;SDS011;10573;50.936;6.978;2023-06-22T11:31:30;12.63;;;9.65;;
20824;SDS011;10573;50.936;6.978;2023-06-22T11:33:55;13.23;;;9.40;;
20824;SDS011;10573;50.936;6.978;2023-06-22T11:36:21;18.02;;;9.05;;
20824;SDS011;10573;50.936;6.978;2023-06-22T11:38:46;27.35;;;16.45;;
20824;SDS011;10573;50.936;6.978;2023-06-22T11:41:12;19.45;;;13.68;;
20824;SDS011;10573;50.936;6.978;2023-06-22T11:43:37;16.70;;;11.27;;
20824;SDS011;10573;50.936;6.978;2023-06-22T11:46:03;12.38;;;9.50;;
20824;SDS011;10573;50.936;6.978;2023-06-22T11:48:29;15.43;;;9.93;;
20824;SDS011;10573;50.936;6.978;2023-06-22T11:50:55;16.10;;;10.15;;
20824;SDS011;10573;50.936;6.978;2023-06-22T11:53:21;14.55;;;10.00;;
20824;SDS011;10573;50.936;6.978;2023-06-22T11:55:47;15.70;;;11.35;;
20824;SDS011;10573;50.936;6.978;2023-06-22T12:34:39;16.25;;;11.18;;
20824;SDS011;10573;50.936;6.978;2023-06-22T12:37:05;14.50;;;11.15;;
20824;SDS011;10573;50.936;6.978;2023-06-22T12:39:33;14.23;;;10.93;;
20824;SDS011;10573;50.936;6.978;2023-06-22T12:41:59;14.20;;;10.40;;
20824;SDS011;10573;50.936;6.978;2023-06-22T12:44:25;14.80;;;10.40;;
20824;SDS011;10573;50.936;6.978;2023-06-22T12:46:50;13.93;;;10.50;;
20824;SDS011;10573;50.936;6.978;2023-06-22T12:49:16;12.52;;;10.27;;
20824;SDS011;10573;50.936;6.978;2023-06-22T12:51:42;10.30;;;9.30;;
20824;SDS011;10573;50.936;6.978;2023-06-22T12:54:08;11.05;;;8.43;;
20824;SDS011;10573;50.936;6.978;2023-06-22T12:56:34;13.27;;;8.98;;
20824;SDS011;10573;50.936;6.978;2023-06-22T12:59:00;10.23;;;8.43;;
20824;SDS011;10573;50.936;6.978;2023-06-22T13:01:28;9.23;;;8.30;;
20824;SDS011;10573;50.936;6.978;2023-06-22T13:03:55;9.05;;;8.18;;
20824;SDS011;10573;50.936;6.978;2023-06-22T13:06:20;9.53;;;8.33;;
20824;SDS011;10573;50.936;6.978;2023-06-22T13:08:46;16.13;;;12.03;;
20824;SDS011;10573;50.936;6.978;2023-06-22T13:11:11;13.97;;;9.73;;
20824;SDS011;10573;50.936;6.978;2023-06-22T13:13:37;9.30;;;8.40;;
20824;SDS011;10573;50.936;6.978;2023-06-22T13:16:03;10.40;;;8.43;;
20824;SDS011;10573;50.936;6.978;2023-06-22T13:18:29;11.70;;;9.13;;
20824;SDS011;10573;50.936;6.978;2023-06-22T13:20:54;10.30;;;8.10;;
20824;SDS011;10573;50.936;6.978;2023-06-22T13:23:20;8.57;;;7.67;;
20824;SDS011;10573;50.936;6.978;2023-06-22T13:25:46;10.32;;;7.72;;
20824;SDS011;10573;50.936;6.978;2023-06-22T13:28:12;7.73;;;7.03;;
20824;SDS011;10573;50.936;6.978;2023-06-22T13:30:40;9.15;;;6.70;;
20824;SDS011;10573;50.936;6.978;2023-06-22T13:33:06;7.77;;;6.60;;
20824;SDS011;10573;50.936;6.978;2023-06-22T13:35:31;12.43;;;9.67;;
20824;SDS011;10573;50.936;6.978;2023-06-22T13:37:57;7.53;;;6.47;;
20824;SDS011;10573;50.936;6.978;2023-06-22T13:40:22;6.77;;;6.10;;
20824;SDS011;10573;50.936;6.978;2023-06-22T13:42:48;8.70;;;6.40;;
20824;SDS011;10573;50.936;6.978;2023-06-22T13:45:13;6.63;;;5.43;;
20824;SDS011;10573;50.936;6.978;2023-06-22T13:47:38;7.85;;;5.35;;
20824;SDS011;10573;50.936;6.978;2023-06-22T13:50:05;5.97;;;5.20;;
20824;SDS011;10573;50.936;6.978;2023-06-22T13:52:30;6.00;;;5.03;;
20824;SDS011;10573;50.936;6.978;2023-06-22T13:54:56;5.63;;;5.10;;
20824;SDS011;10573;50.936;6.978;2023-06-22T13:57:21;5.85;;;5.00;;
20824;SDS011;10573;50.936;6.978;2023-06-22T13:59:47;5.25;;;4.75;;
20824;SDS011;10573;50.936;6.978;2023-06-22T14:02:12;5.10;;;4.40;;
20824;SDS011;10573;50.936;6.978;2023-06-22T14:04:37;4.20;;;3.73;;
20824;SDS011;10573;50.936;6.978;2023-06-22T14:07:03;4.07;;;3.67;;
20824;SDS011;10573;50.936;6.978;2023-06-22T14:09:28;3.90;;;3.50;;
20824;SDS011;10573;50.936;6.978;2023-06-22T14:11:54;3.30;;;3.00;;
20824;SDS011;10573;50.936;6.978;2023-06-22T14:14:20;3.50;;;3.13;;
20824;SDS011;10573;50.936;6.978;2023-06-22T14:16:46;3.35;;;3.15;;
20824;SDS011;10573;50.936;6.978;2023-06-22T14:28:52;5.20;;;4.28;;
20824;SDS011;10573;50.936;6.978;2023-06-22T14:31:18;7.85;;;6.55;;
20824;SDS011;10573;50.936;6.978;2023-06-22T14:33:48;10.82;;;6.00;;
20824;SDS011;10573;50.936;6.978;2023-06-22T14:36:14;6.88;;;4.38;;
20824;SDS011;10573;50.936;6.978;2023-06-22T14:38:42;5.80;;;4.40;;
20824;SDS011;10573;50.936;6.978;2023-06-22T14:41:08;4.65;;;4.25;;
20824;SDS011;10573;50.936;6.978;2023-06-22T14:43:33;10.93;;;5.32;;
20824;SDS011;10573;50.936;6.978;2023-06-22T14:45:59;5.18;;;4.68;;
20824;SDS011;10573;50.936;6.978;2023-06-22T14:58:06;7.35;;;5.40;;
20824;SDS011;10573;50.936;6.978;2023-06-22T15:00:32;8.35;;;5.25;;
20824;SDS011;10573;50.936;6.978;2023-06-22T15:02:57;8.80;;;6.97;;
20824;SDS011;10573;50.936;6.978;2023-06-22T15:05:24;9.98;;;6.43;;
20824;SDS011;10573;50.936;6.978;2023-06-22T15:07:50;7.63;;;6.03;;
20824;SDS011;10573;50.936;6.978;2023-06-22T15:10:15;10.27;;;6.53;;
20824;SDS011;10573;50.936;6.978;2023-06-22T15:12:41;8.43;;;6.38;;
20824;SDS011;10573;50.936;6.978;2023-06-22T15:15:06;8.97;;;6.50;;
20824;SDS011;10573;50.936;6.978;2023-06-22T15:17:32;8.25;;;6.85;;
20824;SDS011;10573;50.936;6.978;2023-06-22T15:19:58;11.60;;;7.43;;
20824;SDS011;10573;50.936;6.978;2023-06-22T15:22:23;13.07;;;8.70;;
20824;SDS011;10573;50.936;6.978;2023-06-22T15:24:49;13.60;;;6.72;;
20824;SDS011;10573;50.936;6.978;2023-06-22T15:27:18;13.00;;;7.32;;
20824;SDS011;10573;50.936;6.978;2023-06-22T15:29:44;9.10;;;6.60;;
20824;SDS011;10573;50.936;6.978;2023-06-22T15:32:10;10.27;;;7.13;;
20824;SDS011;10573;50.936;6.978;2023-06-22T15:34:35;13.40;;;7.32;;
20824;SDS011;10573;50.936;6.978;2023-06-22T15:37:01;8.98;;;6.65;;
20824;SDS011;10573;50.936;6.978;2023-06-22T15:39:26;8.95;;;6.60;;
20824;SDS011;10573;50.936;6.978;2023-06-22T15:41:52;15.98;;;9.05;;